Georgetown, South Carolina
Current Conditions -  °F | °C
As of 10:15 AM on Sunday 21 Dec 2014 (Local Time) from KGGE Reporting Station
Drizzle Drizzle  
Wind Chill: 39°   Ceiling: 5000
Heat Index: 45°   Visibility: 10mi
Dew Point: 37°   Wind: 10mph
Humidity: 76%   Direction: 30°NNE
Pressure: 30.26"   Gusts: NA
Location:  33.37°N, 79.28°W
Report Text: KGGE 211515Z AUTO 03009KT 10SM -DZ SCT036 BKN050 OVC090 07/03 A3026 RMK AO2
Loading
Personal Weather Stations






























Interactive Weather Map New forecast layout! Learn more

10-Day Weather Forecast

Advertisements
Track Severe Weather on mobile